Time;durP1;ratioP1;P1;durP2;ratioP2;P2;SDS_P1;SDS_P2;PMS_P1;PMS_P2;Temp;Humidity;BMP_temperature;BMP_pressure;BME280_temperature;BME280_humidity;BME280_pressure;Samples;Min_cycle;Max_cycle;Signal;HPM_P1;HPM_P2
2023/12/25 00:00:04;;;;;;;2.50;0.60;;;10.20;99.90;;;;;;5110522;28;20056;-69
2023/12/25 00:02:32;;;;;;;1.30;0.52;;;10.20;99.90;;;;;;5090328;28;20024;-67
2023/12/25 00:04:58;;;;;;;2.72;0.60;;;10.20;99.90;;;;;;5091173;28;20402;-67
2023/12/25 00:07:23;;;;;;;2.28;0.55;;;10.20;99.90;;;;;;5097212;28;20031;-67
2023/12/25 00:09:49;;;;;;;3.33;0.75;;;10.10;99.90;;;;;;5069811;28;20068;-67
2023/12/25 00:12:15;;;;;;;2.67;0.40;;;10.10;99.90;;;;;;5071958;28;20036;-67
2023/12/25 00:14:41;;;;;;;0.82;0.40;;;10.00;99.90;;;;;;5078830;28;20479;-69
2023/12/25 00:17:06;;;;;;;1.80;0.80;;;10.10;99.90;;;;;;5070164;28;20075;-67
2023/12/25 00:19:32;;;;;;;1.45;0.60;;;10.10;99.90;;;;;;5061108;28;20063;-66
2023/12/25 00:21:58;;;;;;;3.15;0.98;;;10.00;99.90;;;;;;5072442;28;20032;-66
2023/12/25 00:24:24;;;;;;;3.17;0.57;;;10.00;99.90;;;;;;5090567;28;20024;-67
2023/12/25 00:26:49;;;;;;;3.67;0.43;;;10.00;99.90;;;;;;5078574;28;20044;-67
2023/12/25 00:29:15;;;;;;;2.88;0.60;;;10.00;99.90;;;;;;5070244;28;20036;-66
2023/12/25 00:31:41;;;;;;;3.35;0.70;;;10.00;99.90;;;;;;5083891;28;20050;-69
2023/12/25 00:34:07;;;;;;;1.73;0.70;;;10.00;99.90;;;;;;5089132;28;20028;-68
2023/12/25 00:36:33;;;;;;;1.92;0.70;;;10.00;99.90;;;;;;5069893;28;20020;-67
2023/12/25 00:38:59;;;;;;;3.05;0.50;;;10.00;99.90;;;;;;5073534;28;20029;-66
2023/12/25 00:41:30;;;;;;;1.95;0.43;;;10.00;99.90;;;;;;5091980;28;20354;-66
2023/12/25 00:43:57;;;;;;;1.35;0.70;;;9.90;99.90;;;;;;5106973;28;20031;-67
2023/12/25 00:46:22;;;;;;;2.33;0.70;;;9.80;99.90;;;;;;5092380;28;20031;-67
2023/12/25 00:48:48;;;;;;;1.00;0.50;;;9.70;99.90;;;;;;5087590;28;20398;-66
2023/12/25 00:51:14;;;;;;;1.92;0.70;;;9.70;99.90;;;;;;5071343;28;20060;-68
2023/12/25 00:53:39;;;;;;;1.55;0.70;;;9.80;99.90;;;;;;5089986;28;20089;-67
2023/12/25 00:56:05;;;;;;;2.85;0.60;;;9.80;99.90;;;;;;5081020;28;20136;-66
2023/12/25 00:58:31;;;;;;;1.73;0.50;;;9.80;99.90;;;;;;5089919;28;20543;-68
2023/12/25 01:00:56;;;;;;;0.95;0.52;;;9.80;99.90;;;;;;5088622;28;20086;-66
2023/12/25 01:03:22;;;;;;;1.65;0.70;;;9.90;99.90;;;;;;5089687;28;20032;-67
2023/12/25 01:05:48;;;;;;;2.35;0.50;;;9.90;99.90;;;;;;5088868;28;20063;-66
2023/12/25 01:08:13;;;;;;;2.13;0.70;;;9.90;99.90;;;;;;5088858;28;20150;-66
2023/12/25 01:10:39;;;;;;;3.65;0.70;;;10.00;99.90;;;;;;5069811;28;20112;-66
2023/12/25 01:13:04;;;;;;;1.95;0.40;;;9.90;99.90;;;;;;5050619;28;20024;-66
2023/12/25 01:15:30;;;;;;;1.65;0.73;;;9.90;99.90;;;;;;5051350;28;20050;-67
2023/12/25 01:17:56;;;;;;;3.63;0.70;;;9.90;99.90;;;;;;5079163;28;20110;-66
2023/12/25 01:20:21;;;;;;;3.00;0.70;;;9.90;99.90;;;;;;5055097;28;20069;-68
2023/12/25 01:22:47;;;;;;;1.15;0.50;;;9.90;99.90;;;;;;5072064;28;20037;-69
2023/12/25 01:25:13;;;;;;;1.58;0.50;;;9.90;99.90;;;;;;5070536;28;20028;-66
2023/12/25 01:27:41;;;;;;;2.17;0.63;;;9.90;99.90;;;;;;5083214;28;20020;-66
2023/12/25 01:30:10;;;;;;;5.35;0.95;;;9.80;99.90;;;;;;5078481;28;20627;-67
2023/12/25 01:32:36;;;;;;;1.55;0.50;;;9.80;99.90;;;;;;5089311;28;20045;-67
2023/12/25 01:35:02;;;;;;;1.55;0.55;;;9.80;99.90;;;;;;5069252;28;20029;-66
2023/12/25 01:37:28;;;;;;;1.52;0.50;;;9.90;99.90;;;;;;5068956;28;20031;-66
2023/12/25 01:39:53;;;;;;;1.40;0.57;;;9.70;99.90;;;;;;5073126;28;20028;-67
2023/12/25 01:42:19;;;;;;;1.70;0.60;;;9.80;99.90;;;;;;5089170;28;20458;-67
2023/12/25 01:44:47;;;;;;;1.95;0.50;;;9.80;99.90;;;;;;5087104;28;20028;-69
2023/12/25 01:47:15;;;;;;;2.15;0.50;;;9.80;99.90;;;;;;5087522;28;20477;-67
2023/12/25 01:49:41;;;;;;;2.85;0.63;;;9.90;99.90;;;;;;5093841;28;20040;-68
2023/12/25 01:52:07;;;;;;;0.95;0.40;;;9.70;99.90;;;;;;5098026;28;20035;-67
2023/12/25 01:54:34;;;;;;;0.95;0.35;;;9.70;99.90;;;;;;5093389;28;20024;-67
2023/12/25 01:57:00;;;;;;;2.00;0.60;;;9.70;99.90;;;;;;5086676;28;20028;-66
2023/12/25 01:59:28;;;;;;;2.20;0.52;;;9.70;99.90;;;;;;5086041;28;20950;-67
2023/12/25 02:01:54;;;;;;;1.42;0.45;;;9.70;99.90;;;;;;5060319;28;20039;-68
2023/12/25 02:04:20;;;;;;;1.83;0.55;;;9.80;99.90;;;;;;5083402;28;20024;-66
2023/12/25 02:06:47;;;;;;;0.85;0.35;;;9.80;99.90;;;;;;5087745;28;20115;-69
2023/12/25 02:09:16;;;;;;;1.70;0.60;;;9.70;99.90;;;;;;5087954;28;20047;-68
2023/12/25 02:11:43;;;;;;;1.92;0.60;;;9.70;99.90;;;;;;5087302;28;20111;-69
2023/12/25 02:14:10;;;;;;;3.08;0.60;;;9.60;99.90;;;;;;5087863;28;20095;-67
2023/12/25 02:16:38;;;;;;;2.40;0.70;;;9.60;99.90;;;;;;5088054;28;20028;-67
2023/12/25 02:19:14;;;;;;;1.05;0.52;;;9.60;99.90;;;;;;5085555;28;20030;-68
2023/12/25 02:21:42;;;;;;;0.63;0.40;;;9.70;99.90;;;;;;5065053;28;20389;-66
2023/12/25 02:24:12;;;;;;;2.75;0.60;;;9.70;99.90;;;;;;5086636;28;20715;-67
2023/12/25 02:26:38;;;;;;;2.17;0.60;;;9.70;99.90;;;;;;5086044;28;20521;-67
2023/12/25 02:29:04;;;;;;;1.75;0.45;;;9.80;99.90;;;;;;5069347;28;20082;-67
2023/12/25 02:31:29;;;;;;;1.30;0.40;;;9.80;99.90;;;;;;5083025;28;20044;-67
2023/12/25 02:33:55;;;;;;;1.00;0.52;;;9.70;99.90;;;;;;5070496;28;20027;-67
2023/12/25 02:36:21;;;;;;;2.08;0.57;;;9.80;99.90;;;;;;5086842;28;20111;-67
2023/12/25 02:38:46;;;;;;;3.42;0.40;;;9.80;99.90;;;;;;5069832;28;20665;-67
2023/12/25 02:41:12;;;;;;;1.45;0.40;;;9.80;99.90;;;;;;5069902;28;20030;-67
2023/12/25 02:43:37;;;;;;;1.30;0.60;;;9.70;99.90;;;;;;5090775;28;20098;-67
2023/12/25 02:46:03;;;;;;;2.33;0.80;;;9.70;99.90;;;;;;5088897;28;20051;-67
2023/12/25 02:48:29;;;;;;;1.30;0.47;;;9.70;99.90;;;;;;5091461;28;20040;-68
2023/12/25 02:50:54;;;;;;;1.58;0.52;;;9.70;99.90;;;;;;5090787;28;20047;-67
2023/12/25 02:53:20;;;;;;;1.58;0.43;;;9.70;99.90;;;;;;5090835;28;20455;-67
2023/12/25 02:55:46;;;;;;;0.65;0.30;;;9.70;99.90;;;;;;5090083;28;20028;-67
2023/12/25 02:58:13;;;;;;;1.45;0.50;;;9.70;99.90;;;;;;5085536;28;20035;-67
2023/12/25 03:00:39;;;;;;;1.98;0.50;;;9.70;99.90;;;;;;5091378;28;20079;-68
2023/12/25 03:03:04;;;;;;;3.13;0.45;;;9.80;99.90;;;;;;5090462;28;20419;-67
2023/12/25 03:05:30;;;;;;;2.22;0.73;;;9.80;99.90;;;;;;5091397;28;20032;-69
2023/12/25 03:07:56;;;;;;;1.42;0.40;;;9.70;99.90;;;;;;5069771;28;20039;-67
2023/12/25 03:10:21;;;;;;;3.40;0.47;;;9.60;99.90;;;;;;5090876;28;20068;-68
2023/12/25 03:12:47;;;;;;;0.90;0.47;;;9.70;99.90;;;;;;5093180;28;20035;-68
2023/12/25 03:15:12;;;;;;;1.35;0.60;;;9.60;99.90;;;;;;5071517;28;20449;-67
2023/12/25 03:17:38;;;;;;;0.93;0.45;;;9.70;99.90;;;;;;5089312;28;20032;-68
2023/12/25 03:20:05;;;;;;;1.17;0.50;;;9.70;99.90;;;;;;5103438;28;20035;-67
2023/12/25 03:22:30;;;;;;;1.30;0.50;;;9.70;99.90;;;;;;5091850;28;20059;-67
2023/12/25 03:24:59;;;;;;;1.17;0.50;;;9.50;99.90;;;;;;5090640;28;20068;-68
2023/12/25 03:27:25;;;;;;;2.03;0.40;;;9.60;99.90;;;;;;5089786;28;20381;-67
2023/12/25 03:29:50;;;;;;;1.10;0.60;;;9.50;99.90;;;;;;5089102;28;20039;-68
2023/12/25 03:32:19;;;;;;;1.15;0.60;;;9.50;99.90;;;;;;5085806;28;20101;-68
2023/12/25 03:34:45;;;;;;;4.70;0.45;;;9.50;99.90;;;;;;5083623;28;20028;-67
2023/12/25 03:37:11;;;;;;;1.10;0.40;;;9.50;99.90;;;;;;5089644;28;20063;-67
2023/12/25 03:39:37;;;;;;;1.52;0.50;;;9.50;99.90;;;;;;5091522;28;20382;-68
2023/12/25 03:42:02;;;;;;;2.05;0.43;;;9.60;99.90;;;;;;5089536;28;20032;-67
2023/12/25 03:44:28;;;;;;;1.00;0.50;;;9.60;99.90;;;;;;5090999;28;20031;-67
2023/12/25 03:46:54;;;;;;;2.85;0.50;;;9.60;99.90;;;;;;5072795;28;20024;-69
2023/12/25 03:49:19;;;;;;;2.42;0.63;;;9.50;99.90;;;;;;5088607;28;20028;-67
2023/12/25 03:51:45;;;;;;;1.30;0.60;;;9.60;99.90;;;;;;5089516;28;20462;-66
2023/12/25 03:54:10;;;;;;;1.10;0.50;;;9.60;99.90;;;;;;5080239;28;20028;-67
2023/12/25 03:56:36;;;;;;;3.88;0.47;;;9.50;99.90;;;;;;5072339;28;20029;-67
2023/12/25 03:59:02;;;;;;;2.80;0.40;;;9.40;99.90;;;;;;5087823;28;20386;-66
2023/12/25 04:01:28;;;;;;;2.85;0.52;;;9.50;99.90;;;;;;5078351;28;20111;-67
2023/12/25 04:03:54;;;;;;;1.33;0.50;;;9.40;99.90;;;;;;5085698;28;20107;-69
2023/12/25 04:06:25;;;;;;;3.40;0.50;;;9.40;99.90;;;;;;5098310;28;20039;-67
2023/12/25 04:08:51;;;;;;;1.30;0.50;;;9.40;99.90;;;;;;5093472;28;20148;-67
2023/12/25 04:11:21;;;;;;;1.55;0.65;;;9.40;99.90;;;;;;5090062;28;20093;-67
2023/12/25 04:13:47;;;;;;;1.88;0.50;;;9.30;99.90;;;;;;5071728;28;20393;-67
2023/12/25 04:16:24;;;;;;;0.85;0.30;;;9.20;99.90;;;;;;5085888;28;20392;-67
2023/12/25 04:18:52;;;;;;;2.80;0.50;;;9.30;99.90;;;;;;5072322;28;20039;-67
2023/12/25 04:21:22;;;;;;;1.25;0.50;;;9.20;99.90;;;;;;5087592;28;20867;-67
2023/12/25 04:23:48;;;;;;;6.50;0.70;;;9.20;99.90;;;;;;5088671;28;20032;-67
2023/12/25 04:26:14;;;;;;;2.13;0.50;;;9.10;99.90;;;;;;5089753;28;20032;-67
2023/12/25 04:28:40;;;;;;;2.53;0.57;;;9.20;99.90;;;;;;5089717;28;20077;-67
2023/12/25 04:31:05;;;;;;;3.17;0.63;;;9.10;99.90;;;;;;5095153;28;20044;-66
2023/12/25 04:33:31;;;;;;;4.03;0.47;;;9.20;99.90;;;;;;5080864;28;20033;-67
2023/12/25 04:35:56;;;;;;;1.25;0.50;;;9.20;99.90;;;;;;5062212;28;20067;-69
2023/12/25 04:38:22;;;;;;;1.70;0.45;;;9.20;99.90;;;;;;5069754;28;20028;-67
2023/12/25 04:40:50;;;;;;;1.50;0.40;;;9.20;99.90;;;;;;5083278;28;20032;-69
2023/12/25 04:43:15;;;;;;;2.47;0.60;;;9.20;99.90;;;;;;5070994;28;20049;-66
2023/12/25 04:45:41;;;;;;;2.90;0.68;;;9.20;99.90;;;;;;5088931;28;20119;-68
2023/12/25 04:48:07;;;;;;;1.05;0.30;;;9.20;99.90;;;;;;5069190;28;20032;-67
2023/12/25 04:50:33;;;;;;;3.60;0.55;;;9.20;99.90;;;;;;5087183;28;20036;-68
2023/12/25 04:52:59;;;;;;;1.33;0.40;;;9.20;99.90;;;;;;5086439;28;20032;-69
2023/12/25 04:55:26;;;;;;;3.00;0.60;;;9.20;99.90;;;;;;5070293;28;20028;-66
2023/12/25 04:57:52;;;;;;;1.38;0.73;;;9.20;99.90;;;;;;5072026;28;21592;-68
2023/12/25 05:00:17;;;;;;;2.65;0.30;;;9.20;99.90;;;;;;5049371;28;20041;-69
2023/12/25 05:02:43;;;;;;;3.40;0.50;;;9.20;99.90;;;;;;5086064;28;20024;-67
2023/12/25 05:05:08;;;;;;;4.43;0.38;;;9.10;99.90;;;;;;5088350;28;20032;-67
2023/12/25 05:07:34;;;;;;;1.52;0.40;;;9.10;99.90;;;;;;5088551;28;20482;-67
2023/12/25 05:10:00;;;;;;;0.77;0.40;;;9.20;99.90;;;;;;5088915;28;20103;-69
2023/12/25 05:12:25;;;;;;;1.88;0.50;;;9.20;99.90;;;;;;5087565;28;20035;-67
2023/12/25 05:14:51;;;;;;;0.82;0.43;;;9.20;99.90;;;;;;5086912;28;20477;-67
2023/12/25 05:17:17;;;;;;;0.88;0.30;;;9.10;99.90;;;;;;5077382;28;20056;-68
2023/12/25 05:19:43;;;;;;;2.28;0.93;;;9.10;99.90;;;;;;5082126;28;20389;-68
2023/12/25 05:22:08;;;;;;;1.17;0.40;;;9.10;99.90;;;;;;5093883;28;20031;-68
2023/12/25 05:24:34;;;;;;;2.55;0.85;;;9.10;99.90;;;;;;5085621;28;20377;-67
2023/12/25 05:27:00;;;;;;;2.40;0.50;;;9.10;99.90;;;;;;5088372;28;20133;-69
2023/12/25 05:29:25;;;;;;;1.02;0.38;;;9.00;99.90;;;;;;5087899;28;20039;-66
2023/12/25 05:31:51;;;;;;;1.98;0.47;;;9.10;99.90;;;;;;5077294;28;20052;-68
2023/12/25 05:34:16;;;;;;;2.58;0.30;;;9.00;99.90;;;;;;5086365;28;20132;-67
2023/12/25 05:36:42;;;;;;;1.15;0.65;;;9.00;99.90;;;;;;5089155;28;20082;-67
2023/12/25 05:39:08;;;;;;;2.15;0.40;;;9.00;99.90;;;;;;5091556;28;20027;-66
2023/12/25 05:41:34;;;;;;;4.88;0.70;;;9.00;99.90;;;;;;5100519;28;20024;-67
2023/12/25 05:44:00;;;;;;;1.27;0.32;;;9.00;99.90;;;;;;5109362;28;20020;-69
2023/12/25 05:46:25;;;;;;;1.38;0.45;;;9.00;99.90;;;;;;5095844;28;20027;-66
2023/12/25 05:48:51;;;;;;;1.30;0.38;;;9.10;99.90;;;;;;5086796;28;20072;-67
2023/12/25 05:51:16;;;;;;;1.08;0.50;;;9.00;99.90;;;;;;5083233;28;20040;-69
2023/12/25 05:53:42;;;;;;;1.45;0.50;;;9.00;99.90;;;;;;5069499;28;20078;-67
2023/12/25 05:56:08;;;;;;;2.10;0.40;;;9.00;99.90;;;;;;5088105;28;20056;-67
2023/12/25 05:58:33;;;;;;;1.95;0.40;;;9.00;99.90;;;;;;5085298;28;20028;-67
2023/12/25 06:00:59;;;;;;;3.08;0.50;;;9.00;99.90;;;;;;5085738;28;20116;-66
2023/12/25 06:03:25;;;;;;;1.20;0.40;;;9.00;99.90;;;;;;5085425;28;20055;-67
2023/12/25 06:05:50;;;;;;;1.50;0.57;;;9.00;99.90;;;;;;5069544;28;20090;-67
2023/12/25 06:08:16;;;;;;;1.42;0.47;;;9.00;99.90;;;;;;5088010;28;20028;-67
2023/12/25 06:10:42;;;;;;;1.23;0.50;;;9.00;99.90;;;;;;5088066;28;20040;-68
2023/12/25 06:13:08;;;;;;;1.00;0.43;;;9.00;99.90;;;;;;5087996;28;20012;-67
2023/12/25 06:15:34;;;;;;;3.38;0.50;;;9.00;99.90;;;;;;5087708;28;20035;-66
2023/12/25 06:17:59;;;;;;;1.90;0.40;;;9.00;99.90;;;;;;5087855;28;20024;-67
2023/12/25 06:20:25;;;;;;;1.35;0.32;;;9.00;99.90;;;;;;5085680;28;20035;-66
2023/12/25 06:22:51;;;;;;;1.42;0.60;;;9.00;99.90;;;;;;5072317;28;20044;-67
2023/12/25 06:25:16;;;;;;;2.35;0.50;;;9.00;99.90;;;;;;5074651;28;20032;-67
2023/12/25 06:27:42;;;;;;;2.03;0.60;;;9.00;99.90;;;;;;5091112;28;20462;-67
2023/12/25 06:30:08;;;;;;;2.42;0.70;;;9.00;99.90;;;;;;5076222;28;20675;-68
2023/12/25 06:32:34;;;;;;;1.45;0.60;;;9.00;99.90;;;;;;5103367;28;20028;-67
2023/12/25 06:34:59;;;;;;;2.38;0.60;;;9.10;99.90;;;;;;5092704;28;20028;-67
2023/12/25 06:37:25;;;;;;;1.08;0.40;;;9.00;99.90;;;;;;5076242;28;20893;-68
2023/12/25 06:39:51;;;;;;;1.20;0.50;;;9.00;99.90;;;;;;5079980;28;20338;-68
2023/12/25 06:42:16;;;;;;;1.77;0.40;;;9.10;99.90;;;;;;5085083;28;20024;-68
2023/12/25 06:44:42;;;;;;;0.55;0.30;;;9.10;99.90;;;;;;5086713;28;20024;-68
2023/12/25 06:47:07;;;;;;;2.25;0.40;;;9.10;99.90;;;;;;5107843;28;20028;-68
2023/12/25 06:49:33;;;;;;;1.65;0.50;;;9.00;99.90;;;;;;5069239;28;20062;-68
2023/12/25 06:51:59;;;;;;;2.90;0.50;;;9.00;99.90;;;;;;5086345;28;20039;-67
2023/12/25 06:54:25;;;;;;;1.52;0.40;;;9.00;99.90;;;;;;5085837;28;20024;-67
2023/12/25 06:56:51;;;;;;;1.02;0.40;;;9.00;99.90;;;;;;5083942;28;20032;-67
2023/12/25 06:59:16;;;;;;;0.73;0.35;;;9.10;99.90;;;;;;5086010;28;20082;-68
2023/12/25 07:01:43;;;;;;;0.90;0.40;;;9.00;99.90;;;;;;5087494;28;20044;-69
2023/12/25 07:04:11;;;;;;;1.95;0.55;;;9.10;99.90;;;;;;5071975;28;20025;-68
2023/12/25 07:06:37;;;;;;;3.38;0.73;;;9.00;99.90;;;;;;5077049;28;20466;-67
2023/12/25 07:09:02;;;;;;;1.30;0.50;;;9.10;99.90;;;;;;5084099;28;20089;-67
2023/12/25 07:11:28;;;;;;;2.42;0.50;;;9.10;99.90;;;;;;5090193;28;20052;-67
2023/12/25 07:13:56;;;;;;;1.15;0.50;;;9.10;99.90;;;;;;5088952;28;20493;-67
2023/12/25 07:16:26;;;;;;;2.58;0.90;;;9.00;99.90;;;;;;5082747;28;20073;-68
2023/12/25 07:18:53;;;;;;;1.08;0.28;;;9.00;99.90;;;;;;5082700;28;20024;-68
2023/12/25 07:21:19;;;;;;;0.95;0.50;;;9.00;99.90;;;;;;5079190;28;20036;-69
2023/12/25 07:23:45;;;;;;;1.08;0.32;;;9.00;99.90;;;;;;5059290;28;20028;-67
2023/12/25 07:26:11;;;;;;;3.97;0.60;;;9.00;99.90;;;;;;5089566;28;20039;-67
2023/12/25 07:28:37;;;;;;;1.90;0.60;;;9.00;99.90;;;;;;5089724;28;20036;-68
2023/12/25 07:31:03;;;;;;;1.33;0.63;;;8.90;99.90;;;;;;5075478;28;20036;-67
2023/12/25 07:33:28;;;;;;;1.27;0.50;;;8.90;99.90;;;;;;5080976;28;20043;-68
2023/12/25 07:35:54;;;;;;;0.95;0.50;;;8.90;99.90;;;;;;5086686;28;20032;-67
2023/12/25 07:38:20;;;;;;;1.08;0.40;;;8.90;99.90;;;;;;5085098;28;20470;-67
2023/12/25 07:40:49;;;;;;;1.80;0.60;;;8.90;99.90;;;;;;5088741;28;20024;-68
2023/12/25 07:43:15;;;;;;;1.85;0.70;;;8.90;99.90;;;;;;5075280;28;20035;-67
2023/12/25 07:45:41;;;;;;;1.27;0.57;;;8.90;99.90;;;;;;5091595;28;20466;-67
2023/12/25 07:48:06;;;;;;;1.52;0.60;;;8.90;99.90;;;;;;5081492;28;20494;-69
2023/12/25 07:50:33;;;;;;;3.33;0.75;;;8.90;99.90;;;;;;5052340;28;20044;-68
2023/12/25 07:52:59;;;;;;;2.15;0.68;;;8.90;99.90;;;;;;5071028;28;20099;-67
2023/12/25 07:55:24;;;;;;;3.17;0.55;;;8.90;99.90;;;;;;5070600;28;20127;-67
2023/12/25 07:57:50;;;;;;;1.60;0.50;;;8.90;99.90;;;;;;5079514;28;20534;-69
2023/12/25 08:00:16;;;;;;;3.42;0.50;;;8.90;99.90;;;;;;5083721;28;20048;-69
2023/12/25 08:02:41;;;;;;;1.88;0.70;;;8.90;99.90;;;;;;5074774;28;20619;-68
2023/12/25 08:05:07;;;;;;;1.27;0.63;;;8.90;99.90;;;;;;5090265;28;20036;-69
2023/12/25 08:07:33;;;;;;;4.03;0.70;;;8.80;99.90;;;;;;5089668;28;20103;-67
2023/12/25 08:09:58;;;;;;;2.20;0.80;;;8.90;99.90;;;;;;5078456;28;20064;-68
2023/12/25 08:12:24;;;;;;;4.72;0.55;;;8.90;99.90;;;;;;5089009;28;20035;-68
2023/12/25 08:14:50;;;;;;;1.00;0.30;;;8.90;99.90;;;;;;5090770;28;20051;-67
2023/12/25 08:17:17;;;;;;;1.67;0.70;;;8.90;99.90;;;;;;5088446;28;20089;-68
2023/12/25 08:19:42;;;;;;;1.67;0.60;;;8.90;99.90;;;;;;5069179;28;20087;-67
2023/12/25 08:22:08;;;;;;;3.55;1.08;;;9.00;99.90;;;;;;5072564;28;20929;-69
2023/12/25 08:24:36;;;;;;;2.35;0.80;;;8.90;99.90;;;;;;5078846;28;20119;-69
2023/12/25 08:27:03;;;;;;;1.88;0.80;;;9.00;99.90;;;;;;5079157;28;20036;-69
2023/12/25 08:29:28;;;;;;;1.35;0.70;;;9.00;99.90;;;;;;5074462;28;20667;-68
2023/12/25 08:31:55;;;;;;;0.80;0.52;;;9.00;99.90;;;;;;5045324;28;20070;-69
2023/12/25 08:34:23;;;;;;;1.33;0.68;;;9.00;99.90;;;;;;5074921;28;20059;-69
2023/12/25 08:36:49;;;;;;;1.08;0.50;;;9.10;99.90;;;;;;5080548;28;20036;-70
2023/12/25 08:39:15;;;;;;;1.67;0.60;;;9.10;99.90;;;;;;5075594;28;20639;-70
2023/12/25 08:41:41;;;;;;;1.65;0.60;;;9.00;99.90;;;;;;5077180;28;20058;-69
2023/12/25 08:44:06;;;;;;;2.90;0.93;;;9.10;99.90;;;;;;5074347;28;20089;-70
2023/12/25 08:46:32;;;;;;;1.95;0.70;;;9.00;99.90;;;;;;5075903;28;20028;-70
2023/12/25 08:48:58;;;;;;;1.27;0.70;;;9.00;99.90;;;;;;5075635;28;20599;-71
2023/12/25 08:51:23;;;;;;;3.60;0.70;;;9.00;99.90;;;;;;5079051;28;20115;-72
2023/12/25 08:53:49;;;;;;;0.75;0.50;;;9.00;99.90;;;;;;5052652;28;20716;-69
2023/12/25 08:56:28;;;;;;;0.85;0.47;;;9.00;99.90;;;;;;5079512;28;20059;-73
2023/12/25 08:58:53;;;;;;;1.02;0.60;;;9.00;99.90;;;;;;5076823;28;20071;-69
2023/12/25 09:01:22;;;;;;;1.42;0.63;;;9.00;99.90;;;;;;5058859;28;20219;-68
2023/12/25 09:03:50;;;;;;;3.28;0.60;;;9.00;99.90;;;;;;5059429;28;20040;-70
2023/12/25 09:06:15;;;;;;;1.05;0.60;;;9.00;99.90;;;;;;5061281;28;20063;-71
2023/12/25 09:08:41;;;;;;;8.88;0.77;;;9.00;99.90;;;;;;5050023;28;20060;-67
2023/12/25 09:11:09;;;;;;;1.70;0.70;;;9.00;99.90;;;;;;5067844;28;20386;-69
2023/12/25 09:13:35;;;;;;;8.48;0.73;;;9.10;99.90;;;;;;5067102;28;20057;-67
2023/12/25 09:16:01;;;;;;;2.13;0.55;;;9.10;99.90;;;;;;5049580;28;20025;-67
2023/12/25 09:18:27;;;;;;;2.88;1.02;;;9.20;99.90;;;;;;5055784;28;20039;-67
2023/12/25 09:20:52;;;;;;;1.83;0.65;;;9.20;99.90;;;;;;5050771;28;20100;-66
2023/12/25 09:23:18;;;;;;;2.65;0.63;;;9.10;99.90;;;;;;5058166;28;20487;-68
2023/12/25 09:25:44;;;;;;;3.50;0.55;;;9.10;99.90;;;;;;5049284;28;20036;-68
2023/12/25 09:28:11;;;;;;;2.28;0.70;;;9.10;99.90;;;;;;5056617;28;20085;-67
2023/12/25 09:30:37;;;;;;;1.55;0.70;;;9.10;99.90;;;;;;5050454;28;20489;-67
2023/12/25 09:33:03;;;;;;;2.53;0.73;;;9.10;99.90;;;;;;5072624;28;20031;-65
2023/12/25 09:35:29;;;;;;;2.83;0.90;;;9.00;99.90;;;;;;5086815;28;20032;-68
2023/12/25 09:37:55;;;;;;;2.75;0.73;;;9.10;99.90;;;;;;5053147;28;20391;-68
2023/12/25 09:40:21;;;;;;;2.40;0.75;;;9.10;99.90;;;;;;5067228;28;20488;-66
2023/12/25 09:42:49;;;;;;;3.22;0.82;;;9.00;99.90;;;;;;5067991;28;20032;-68
2023/12/25 09:45:16;;;;;;;1.30;0.70;;;9.00;99.90;;;;;;5073356;28;20016;-69
2023/12/25 09:47:42;;;;;;;1.40;0.75;;;9.10;99.90;;;;;;5079692;28;20035;-67
2023/12/25 09:50:08;;;;;;;1.42;0.70;;;9.00;99.90;;;;;;5054249;28;20017;-67
2023/12/25 09:52:34;;;;;;;1.17;0.60;;;9.10;99.90;;;;;;5067371;28;20728;-67
2023/12/25 09:55:00;;;;;;;1.45;0.65;;;9.00;99.90;;;;;;5075363;28;20055;-65
2023/12/25 09:57:29;;;;;;;3.42;0.95;;;9.10;99.90;;;;;;5064488;28;20063;-69
2023/12/25 09:59:56;;;;;;;2.92;0.90;;;9.20;99.90;;;;;;5057266;28;20073;-66
2023/12/25 10:02:23;;;;;;;4.05;0.70;;;9.20;99.90;;;;;;5066318;28;20032;-68
2023/12/25 10:04:52;;;;;;;1.77;0.90;;;9.20;99.90;;;;;;5068596;28;20094;-67
2023/12/25 10:07:21;;;;;;;2.00;0.80;;;9.20;99.90;;;;;;5048858;28;20035;-70
2023/12/25 10:09:49;;;;;;;1.60;0.77;;;9.20;99.90;;;;;;5049514;28;20110;-68
2023/12/25 10:12:15;;;;;;;1.50;0.52;;;9.10;99.90;;;;;;5049591;28;20032;-70
2023/12/25 10:14:44;;;;;;;2.10;0.90;;;9.10;99.90;;;;;;5067730;28;20434;-67
2023/12/25 10:17:09;;;;;;;2.95;0.63;;;9.10;99.90;;;;;;5067791;28;20071;-69
2023/12/25 10:19:51;;;;;;;1.42;0.70;;;9.10;99.90;;;;;;5066825;28;20040;-67
2023/12/25 10:22:38;;;;;;;3.40;0.68;;;9.10;99.90;;;;;;5066837;28;20037;-70
2023/12/25 10:25:14;;;;;;;1.88;0.68;;;9.10;99.90;;;;;;5066371;28;20082;-67
2023/12/25 10:27:42;;;;;;;1.77;0.80;;;9.10;99.90;;;;;;5059480;28;20110;-66
2023/12/25 10:30:27;;;;;;;1.48;0.73;;;9.10;99.90;;;;;;5068325;28;20119;-67
2023/12/25 10:33:14;;;;;;;2.10;0.77;;;9.20;99.90;;;;;;5067275;28;20039;-67
2023/12/25 10:35:41;;;;;;;1.80;0.52;;;9.20;99.90;;;;;;5067245;28;20025;-67
2023/12/25 10:38:07;;;;;;;1.25;0.63;;;9.20;99.90;;;;;;5067340;28;20107;-67
2023/12/25 10:40:33;;;;;;;1.65;0.77;;;9.30;99.90;;;;;;5067218;28;20425;-68
2023/12/25 10:42:59;;;;;;;1.65;0.68;;;9.40;99.90;;;;;;5059274;28;20454;-67
2023/12/25 10:45:30;;;;;;;2.65;0.93;;;9.50;99.90;;;;;;5062056;28;20414;-67
2023/12/25 10:47:56;;;;;;;2.20;0.82;;;9.50;99.90;;;;;;5067010;28;20577;-68
2023/12/25 10:50:27;;;;;;;1.42;0.70;;;9.40;99.90;;;;;;5067412;28;20033;-67
2023/12/25 10:53:04;;;;;;;1.52;0.85;;;9.40;99.90;;;;;;5067355;28;20032;-69
2023/12/25 10:55:36;;;;;;;3.45;1.00;;;9.50;99.90;;;;;;5067798;28;20044;-66
2023/12/25 10:58:05;;;;;;;2.65;0.75;;;9.40;99.90;;;;;;5061695;28;20033;-68
2023/12/25 11:00:32;;;;;;;1.42;0.65;;;9.40;99.90;;;;;;5077652;28;20533;-68
2023/12/25 11:03:01;;;;;;;1.25;0.60;;;9.50;99.90;;;;;;5083072;28;20508;-66
2023/12/25 11:05:27;;;;;;;1.50;0.93;;;9.50;99.90;;;;;;5058618;28;20039;-67
2023/12/25 11:07:53;;;;;;;1.38;0.63;;;9.50;99.90;;;;;;5034096;28;20025;-66
2023/12/25 11:10:19;;;;;;;1.25;0.70;;;9.50;99.90;;;;;;5051345;28;20029;-71
2023/12/25 11:12:45;;;;;;;4.00;0.90;;;9.60;99.90;;;;;;5059869;28;20466;-65
2023/12/25 11:15:11;;;;;;;3.60;0.95;;;9.60;99.90;;;;;;5070968;28;20451;-67
2023/12/25 11:17:38;;;;;;;1.35;0.65;;;9.60;99.90;;;;;;5070235;28;20024;-68
2023/12/25 11:20:11;;;;;;;1.92;0.75;;;9.60;99.90;;;;;;5071470;28;20028;-67
2023/12/25 11:22:40;;;;;;;5.30;0.80;;;9.60;99.90;;;;;;5055534;28;20037;-68
2023/12/25 11:25:16;;;;;;;1.73;0.60;;;9.70;99.90;;;;;;5071120;28;20082;-66
2023/12/25 11:27:53;;;;;;;2.38;0.63;;;9.70;99.90;;;;;;5069636;28;20047;-68
2023/12/25 11:30:21;;;;;;;3.22;0.65;;;9.70;99.90;;;;;;5070568;28;20032;-70
2023/12/25 11:32:49;;;;;;;1.40;0.73;;;9.80;99.90;;;;;;5074593;28;20055;-68
2023/12/25 11:35:16;;;;;;;3.67;0.73;;;9.90;99.90;;;;;;5062954;28;20064;-67
2023/12/25 11:37:42;;;;;;;2.67;0.70;;;9.80;99.90;;;;;;5053867;28;20052;-67
2023/12/25 11:40:08;;;;;;;2.03;0.80;;;9.90;99.90;;;;;;5071163;28;20724;-66
2023/12/25 11:42:36;;;;;;;2.50;0.70;;;9.80;99.90;;;;;;5051511;28;20028;-67
2023/12/25 11:45:04;;;;;;;2.55;0.77;;;9.70;99.90;;;;;;5070662;28;20029;-68
2023/12/25 11:47:42;;;;;;;2.75;0.75;;;9.70;99.90;;;;;;5069502;28;20467;-67
2023/12/25 11:50:12;;;;;;;2.60;0.70;;;9.70;99.90;;;;;;5077763;28;20025;-67
2023/12/25 11:52:46;;;;;;;3.67;0.80;;;9.70;99.90;;;;;;5070480;28;20418;-67
2023/12/25 11:55:19;;;;;;;1.08;0.47;;;9.70;99.90;;;;;;5051224;28;20585;-67
2023/12/25 11:57:45;;;;;;;1.50;0.60;;;9.70;99.90;;;;;;5053301;28;20416;-67
2023/12/25 12:00:20;;;;;;;2.78;0.90;;;9.70;99.90;;;;;;5100026;28;20059;-67
2023/12/25 12:02:46;;;;;;;3.15;0.80;;;9.70;99.90;;;;;;5105413;28;20102;-67
2023/12/25 12:05:12;;;;;;;1.63;0.60;;;9.70;99.90;;;;;;5101786;28;20158;-67
2023/12/25 12:07:38;;;;;;;1.52;0.70;;;9.70;99.90;;;;;;5100224;28;20052;-66
2023/12/25 12:10:04;;;;;;;0.95;0.60;;;9.70;99.90;;;;;;5083460;28;20140;-66
2023/12/25 12:12:30;;;;;;;2.40;0.70;;;9.70;99.90;;;;;;5098940;28;20185;-65
2023/12/25 12:14:56;;;;;;;1.48;0.60;;;9.80;99.90;;;;;;5083127;28;20114;-66
2023/12/25 12:17:22;;;;;;;3.75;0.93;;;9.80;99.90;;;;;;5093777;28;20035;-70
2023/12/25 12:19:48;;;;;;;1.75;0.80;;;9.80;99.90;;;;;;5098434;28;20103;-66
2023/12/25 12:22:17;;;;;;;2.63;0.95;;;9.90;99.90;;;;;;5085626;28;20043;-66
2023/12/25 12:24:43;;;;;;;1.55;0.60;;;9.90;99.90;;;;;;5088810;28;20016;-66
2023/12/25 12:27:11;;;;;;;2.10;0.70;;;9.90;99.90;;;;;;5090620;28;20032;-67
2023/12/25 12:29:37;;;;;;;3.45;0.80;;;9.90;99.90;;;;;;5088366;28;20095;-67
2023/12/25 12:32:03;;;;;;;1.88;0.80;;;10.00;99.90;;;;;;5070099;28;20048;-65
2023/12/25 12:34:29;;;;;;;2.35;0.85;;;10.00;99.90;;;;;;5087899;28;20487;-66
2023/12/25 12:36:59;;;;;;;1.58;0.63;;;9.90;99.90;;;;;;5093954;28;20028;-66
2023/12/25 12:39:26;;;;;;;3.97;0.90;;;10.00;99.90;;;;;;5088039;28;20024;-69
2023/12/25 12:41:53;;;;;;;1.58;0.60;;;10.00;99.90;;;;;;5098587;28;20819;-66
2023/12/25 12:44:19;;;;;;;1.02;0.60;;;10.00;99.90;;;;;;5105740;28;20020;-67
2023/12/25 12:46:44;;;;;;;3.30;0.65;;;10.00;99.90;;;;;;5102655;28;20027;-68
2023/12/25 12:49:10;;;;;;;3.65;0.73;;;10.00;99.90;;;;;;5070320;28;20038;-66
2023/12/25 12:51:36;;;;;;;1.95;0.70;;;10.00;99.90;;;;;;5099745;28;20036;-66